Philipp Bergmann

Olheiro - Werder Bremen
6 Dez 2028
Quarta-feira
Processo

Personalidade

Adaptabilidade (9) Ambição (12) Controvérsia (18) Lealdade (12) Pressão (11) Profissionalismo (13) Espírito Esportivo (18) Temperamento (7)

Perfil

Estilo de Treinamento Democrático
Licença Continental B
Determinação 7
Gestão de Pessoas 7
Motivação 9
Disciplina 8
Satisfação no Trabalho
100%
Fadiga
0%
Função Olheiro
Salário 101.2K p/s
Contrato 14.03.2029

Desempenho

Comportamento Bom
Eficácia do Treinamento
43%
Desenvolvimento do Jogador
70%
Prevenção de Lesões
40%
Implementação Tática
35%

Eventos Recentes

Participou de uma reunião de recrutamento 7d atrás
Recomendou um alvo de transferência 7d atrás
Observou uma partida 7d atrás
Participou de uma reunião de recrutamento 14d atrás
Recomendou um alvo de transferência 14d atrás
Observou uma partida 14d atrás
Recomendou um alvo de transferência 21d atrás
Observou uma partida 21d atrás

Monitorando agora

106
Jogador Clube Status Habilidade Confiança Observado Última observação Último voto
Joël Schmied Köln Perdido 136 / 142 83% 1 28.08.2028 -
Fernando St. Pauli Perdido 122 / 124 83% 1 07.08.2028 -
Bruno Ogbus St. Pauli Ativo 124 / 129 40% 3 12.07.2027 -
Bence Dárdai VfL Wolfsburg Ativo 131 / 135 40% 2 23.06.2027 -
Gonçalo Oliveira Benfica Ativo 108 / 116 40% 2 21.06.2027 -
Rhys Walters Port Vale Ativo 99 / 111 40% 1 21.06.2027 -
Adam Hložek TSG Hoffenheim Ativo 140 / 144 79% 1 02.06.2027 Aprovar
Riley Owen Stevenage Ativo 105 / 113 40% 1 01.06.2027 -
Yussif Saidu Zaragoza Ativo 125 / 123 40% 5 31.05.2027 -
Gaspar Gijón Ativo 141 / 128 40% 4 30.05.2027 -
Lucien Agoumé Sevilla Ativo 145 / 151 40% 1 30.05.2027 -
Jack Rudoni Coventry City Ativo 140 / 133 40% 1 30.05.2027 -
David Larrubia Málaga Ativo 131 / 130 40% 3 28.05.2027 -
Finn Azaz Southampton Ativo 130 / 122 40% 1 27.05.2027 -
Boubacar Kamara Aston Villa Ativo 164 / 171 40% 1 26.05.2027 -
Izan Merino Málaga Ativo 123 / 130 40% 4 25.05.2027 -
Lucas Høgsberg RC Strasbourg Ativo 139 / 140 40% 2 25.05.2027 -
Joe Gelhardt Hull City Ativo 131 / 129 40% 2 25.05.2027 -
Maximilian Beier Borussia Dortmund Ativo 152 / 164 40% 2 24.05.2027 -
Jan Bürger Northampton Town Ativo 113 / 129 40% 1 23.05.2027 -
Givairo Read Feyenoord Ativo 143 / 150 40% 2 22.05.2027 -
Mateus Mané Burnley Ativo 137 / 149 40% 1 22.05.2027 -
Amadou Onana Aston Villa Ativo 154 / 145 40% 2 21.05.2027 -
Xavi Simons Tottenham Ativo 161 / 166 40% 2 19.05.2027 -
Tiago Freitas Benfica Ativo 112 / 118 40% 3 18.05.2027 -
Kees Smit AZ Ativo 143 / 139 40% 2 18.05.2027 -
Georges Mikautadze Villarreal Ativo 158 / 153 40% 1 18.05.2027 -
Ezra Mayers West Ham United Ativo 113 / 128 40% 1 16.05.2027 -
Álex Baena Atlético Madrid Ativo 159 / 153 40% 3 14.05.2027 -
Osame Sahraoui LOSC Lille Ativo 145 / 153 40% 4 14.05.2027 -
Savinho Tottenham Ativo 158 / 150 40% 6 14.05.2027 -
Roberto Fernández Braga Ativo 140 / 136 40% 2 12.05.2027 -
Martim Cunha Porto Ativo 100 / 117 40% 1 12.05.2027 -
Marc Bernal Sevilla Ativo 138 / 151 40% 1 08.05.2027 -
Mario Soriano Deportivo La Coruña Ativo 136 / 129 40% 1 07.05.2027 -
Jan Virgili Club Brugge Ativo 137 / 137 40% 1 07.05.2027 -
Yusi Alavés Ativo 130 / 136 40% 3 03.05.2027 -
Saïd El Mala Köln Ativo 135 / 134 40% 2 03.05.2027 -
Samuele di Benedetto Twente Ativo 109 / 111 40% 2 03.05.2027 -
David Mella Deportivo La Coruña Ativo 133 / 136 40% 1 03.05.2027 -
Leo Sauer VfB Stuttgart Ativo 134 / 138 40% 1 03.05.2027 -
Pedro Porro Tottenham Ativo 148 / 154 40% 1 02.05.2027 -
Mikel Jauregizar Athletic Bilbao Ativo 158 / 164 40% 4 30.04.2027 -
Giannis Konstantelias Borussia Dortmund Ativo 145 / 135 40% 3 30.04.2027 -
Pablo Torre Mallorca Ativo 150 / 139 40% 2 30.04.2027 -
Caleb Yirenkyi Coventry City Ativo 140 / 140 40% 1 29.04.2027 -
Othmane Maamma Watford Ativo 124 / 128 40% 4 25.04.2027 -
Can Uzun Eintracht Frankfurt Ativo 144 / 135 40% 1 25.04.2027 -
Romelle Donovan Brentford Ativo 118 / 120 40% 1 24.04.2027 -
Leo Castledine Middlesbrough Ativo 123 / 124 40% 3 21.04.2027 -
Georginio Rutter Brighton Ativo 145 / 149 40% 2 21.04.2027 -
Omar El Hilali Espanyol Ativo 154 / 159 40% 2 19.04.2027 -
Alfon Sevilla Ativo 135 / 140 40% 1 19.04.2027 -
Chemsdine Talbi Sunderland Ativo 141 / 138 40% 8 17.04.2027 -
Andrés Martín Racing Santander Ativo 139 / 134 40% 4 15.04.2027 -
Pau Víctor Braga Ativo 143 / 130 40% 2 14.04.2027 -
Kirill Glebov CSKA Moscow Ativo 129 / 127 40% 3 12.04.2027 -
Ibrahim Maza Bayer Leverkusen Ativo 140 / 141 40% 3 08.04.2027 -
Pau Navarro Villarreal Ativo 142 / 148 40% 1 08.04.2027 -
Francisco Conceição Köln Ativo 154 / 149 40% 2 07.04.2027 -
Geny Sporting CP Ativo 143 / 140 40% 1 07.04.2027 -
Pau Cubarsí Real Sociedad Ativo 155 / 160 40% 1 02.04.2027 -
Illaijh de Ruijter ADO Den Haag Ativo 110 / 122 40% 1 02.04.2027 -
Manu Koné AS Roma Ativo 168 / 161 40% 2 01.04.2027 -
Malik Tillman Bayer Leverkusen Ativo 147 / 155 40% 1 01.04.2027 -
James Dornelly Peterborough United Ativo 100 / 102 40% 1 31.03.2027 -
Sindre Walle Egeli Udinese Ativo 127 / 129 40% 2 28.03.2027 -
Kevin Fulham Ativo 146 / 143 40% 1 27.03.2027 -
Óscar Mingueza Crystal Palace Ativo 145 / 144 40% 1 26.03.2027 -
Victor Froholdt Porto Ativo 153 / 164 40% 1 24.03.2027 -
Ez Abde Betis Ativo 146 / 154 40% 1 19.03.2027 -
Mikkel Damsgaard Brentford Ativo 147 / 147 40% 1 18.03.2027 -
Carlos Álvarez Club America Ativo 145 / 131 40% 1 17.03.2027 -
Rocco Vata Watford Ativo 124 / 127 40% 2 10.03.2027 -
Dehmaine Tabibou FC Nantes Ativo 121 / 123 40% 1 09.03.2027 -
Nico O'Reilly Manchester City Ativo 149 / 156 40% 3 04.03.2027 -
Olívio Tomé Benfica Ativo 110 / 105 40% 1 01.03.2027 -
Tristan Degreef Anderlecht Ativo 130 / 119 40% 2 25.12.2026 -
Robert FC Copenhagen Ativo 123 / 148 40% 1 25.12.2026 -
João Pedro Chelsea Ativo 152 / 145 40% 1 16.12.2026 -
Sanel Šaljić Austria Wien Ativo 113 / 116 40% 2 13.12.2026 -
Martin Gjorgievski Zbrojovka Brno Ativo 116 / 123 40% 1 09.12.2026 -
Kyriani Sabbe Club Brugge Ativo 124 / 121 40% 1 27.11.2026 -
Juan-José Perea Zurich Ativo 118 / 110 40% 1 26.11.2026 -
Jonathan Dubasin Osasuna Ativo 141 / 150 40% 1 26.11.2026 -
Ibrahim Salah Basel Ativo 120 / 123 40% 1 25.11.2026 -
Christantus Uche Getafe Ativo 139 / 149 40% 1 22.11.2026 -
Bobby Clark Derby County Ativo 117 / 137 40% 1 17.11.2026 -
Srđan Hrstić Altach Ativo 103 / 109 40% 1 17.11.2026 -
William Gomes Porto Ativo 141 / 144 40% 1 13.11.2026 -
Edmund Baidoo St. Gallen Ativo 122 / 124 40% 1 11.11.2026 -
Evan Eghosa SV Ried Ativo 104 / 105 40% 1 11.11.2026 -
Bazoumana Touré Newcastle United Ativo 133 / 132 40% 1 08.11.2026 -
Lee Tae-Suk Austria Wien Ativo 122 / 133 40% 1 03.11.2026 -
Metinho Basel Ativo 125 / 136 40% 1 03.11.2026 -
Javi Guerra Valencia Ativo 147 / 156 40% 1 03.11.2026 -
Mauro Silveira Junior Ativo 121 / 113 40% 1 12.10.2026 -
Mio Backhaus SC Freiburg Ativo 136 / 143 40% 1 12.10.2026 -
Marvin Keller Chelsea Ativo 139 / 127 40% 2 08.10.2026 -
Robin Roefs Sunderland Ativo 141 / 156 40% 1 08.10.2026 -
James Trafford Leeds United Ativo 140 / 144 40% 1 05.10.2026 -
Caoimhin Kelleher Brentford Ativo 153 / 148 40% 1 28.09.2026 -
Raúl Rangel Braga Ativo 138 / 124 40% 1 28.09.2026 -
Leo Román Deportivo La Coruña Ativo 141 / 138 40% 1 13.09.2026 -
Esteban Glellel Quilmes Ativo 113 / 95 40% 1 08.09.2026 -
Zion Suzuki Aston Villa Ativo 133 / 141 40% 1 08.09.2026 -